Time;durP1;ratioP1;P1;durP2;ratioP2;P2;SDS_P1;SDS_P2;PMS_P1;PMS_P2;Temp;Humidity;BMP_temperature;BMP_pressure;BME280_temperature;BME280_humidity;BME280_pressure;Samples;Min_cycle;Max_cycle;Signal;HPM_P1;HPM_P2
2023/07/14 00:00:16;;;;;;;0.20;0.20;;;17.50;99.90;;;;;;5048095;28;20041;-83
2023/07/14 00:02:44;;;;;;;0.10;0.10;;;17.50;99.90;;;;;;5031590;28;20288;-83
2023/07/14 00:05:26;;;;;;;0.20;0.20;;;17.50;99.90;;;;;;5033717;28;20473;-83
2023/07/14 00:07:54;;;;;;;0.20;0.20;;;17.50;99.90;;;;;;5031371;28;20040;-83
2023/07/14 00:10:22;;;;;;;0.10;0.10;;;17.50;99.90;;;;;;5049542;28;20121;-83
2023/07/14 00:12:49;;;;;;;0.20;0.20;;;17.40;99.90;;;;;;5031010;28;20052;-82
2023/07/14 00:15:16;;;;;;;0.20;0.20;;;17.40;99.90;;;;;;5049347;28;20045;-83
2023/07/14 00:17:43;;;;;;;0.20;0.20;;;17.30;99.90;;;;;;5045644;28;20033;-84
2023/07/14 00:20:19;;;;;;;0.20;0.20;;;17.30;99.90;;;;;;5048831;28;20114;-83
2023/07/14 00:22:44;;;;;;;0.20;0.20;;;17.30;99.90;;;;;;5031009;28;20040;-83
2023/07/14 00:25:13;;;;;;;0.20;0.20;;;17.20;99.90;;;;;;5027969;28;20045;-84
2023/07/14 00:27:39;;;;;;;0.20;0.20;;;17.20;99.90;;;;;;5029850;28;20044;-83
2023/07/14 00:30:23;;;;;;;0.20;0.20;;;17.20;99.90;;;;;;5045637;28;20058;-83
2023/07/14 00:32:51;;;;;;;0.20;0.20;;;17.20;99.90;;;;;;5039230;28;20060;-83
2023/07/14 00:35:22;;;;;;;0.10;0.10;;;17.20;99.90;;;;;;5046214;28;20046;-83
2023/07/14 00:37:48;;;;;;;;;;;17.10;99.90;;;;;;5045472;28;20132;-84
2023/07/14 00:40:17;;;;;;;0.13;0.13;;;17.10;99.90;;;;;;5046764;28;19920;-83
2023/07/14 00:42:46;;;;;;;0.20;0.20;;;17.10;99.90;;;;;;5042882;28;20069;-83
2023/07/14 00:45:17;;;;;;;0.20;0.20;;;17.10;99.90;;;;;;5043481;28;20056;-83
2023/07/14 00:47:47;;;;;;;0.20;0.20;;;17.00;99.90;;;;;;5043481;28;20045;-84
2023/07/14 00:50:43;;;;;;;0.10;0.10;;;17.00;99.90;;;;;;5047845;28;20053;-83
2023/07/14 00:53:20;;;;;;;0.13;0.13;;;17.00;99.90;;;;;;5038511;28;20053;-83
2023/07/14 00:55:58;;;;;;;0.20;0.20;;;16.90;99.90;;;;;;5044324;28;20504;-83
2023/07/14 00:58:27;;;;;;;0.20;0.20;;;16.90;99.90;;;;;;5043878;28;20037;-83
2023/07/14 01:01:06;;;;;;;0.20;0.20;;;16.90;99.90;;;;;;5047224;28;20087;-83
2023/07/14 01:03:32;;;;;;;0.20;0.20;;;16.90;99.90;;;;;;5046981;28;20049;-83
2023/07/14 01:06:00;;;;;;;0.20;0.20;;;16.90;99.90;;;;;;5044620;28;20041;-83
2023/07/14 01:08:27;;;;;;;0.20;0.20;;;16.80;99.90;;;;;;5046282;28;20131;-83
2023/07/14 01:10:53;;;;;;;0.20;0.20;;;16.80;99.90;;;;;;5048383;28;20078;-83
2023/07/14 01:13:20;;;;;;;0.15;0.15;;;16.80;99.90;;;;;;5043735;28;20045;-84
2023/07/14 01:15:47;;;;;;;0.20;0.20;;;16.80;99.90;;;;;;5047365;28;20102;-83
2023/07/14 01:18:13;;;;;;;0.20;0.20;;;16.70;99.90;;;;;;5044196;28;20103;-83
2023/07/14 01:20:40;;;;;;;0.10;0.10;;;16.70;99.90;;;;;;5044931;28;20049;-82
2023/07/14 01:23:21;;;;;;;0.20;0.20;;;16.70;99.90;;;;;;5046494;28;20727;-83
2023/07/14 01:26:14;;;;;;;0.10;0.10;;;16.70;99.90;;;;;;5046154;28;20171;-82
2023/07/14 01:28:41;;;;;;;0.20;0.20;;;16.60;99.90;;;;;;5044890;28;20053;-83
2023/07/14 01:31:11;;;;;;;0.20;0.20;;;16.60;99.90;;;;;;5047568;28;20500;-83
2023/07/14 01:33:37;;;;;;;0.20;0.20;;;16.60;99.90;;;;;;5026381;28;20048;-83
2023/07/14 01:36:04;;;;;;;0.20;0.20;;;16.60;99.90;;;;;;5047611;28;20049;-83
2023/07/14 01:38:30;;;;;;;0.20;0.20;;;16.60;99.90;;;;;;5025572;28;20041;-83
2023/07/14 01:40:56;;;;;;;0.20;0.20;;;16.60;99.90;;;;;;5027678;28;20485;-83
2023/07/14 01:43:23;;;;;;;0.10;0.10;;;16.50;99.90;;;;;;5046497;28;20492;-83
2023/07/14 01:45:59;;;;;;;0.10;0.10;;;16.50;99.90;;;;;;5047018;28;20063;-83
2023/07/14 01:48:41;;;;;;;0.20;0.20;;;16.50;99.90;;;;;;5029018;28;20065;-83
2023/07/14 01:51:11;;;;;;;0.20;0.20;;;16.50;99.90;;;;;;5050014;28;20067;-83
2023/07/14 01:53:54;;;;;;;0.20;0.20;;;16.50;99.90;;;;;;5047772;28;20493;-83
2023/07/14 01:56:23;;;;;;;0.20;0.20;;;16.40;99.90;;;;;;5031687;28;20112;-83
2023/07/14 01:58:57;;;;;;;0.20;0.20;;;16.40;99.90;;;;;;5044434;28;20056;-83
2023/07/14 02:01:25;;;;;;;0.20;0.20;;;16.40;99.90;;;;;;5028729;28;20048;-83
2023/07/14 02:03:54;;;;;;;0.20;0.20;;;16.40;99.90;;;;;;5031210;28;20910;-84
2023/07/14 02:06:20;;;;;;;0.20;0.20;;;16.30;99.90;;;;;;5031253;28;20052;-84
2023/07/14 02:08:46;;;;;;;0.10;0.10;;;16.40;99.90;;;;;;5047406;28;20045;-84
2023/07/14 02:11:17;;;;;;;0.20;0.20;;;16.40;99.90;;;;;;5049198;28;20116;-83
2023/07/14 02:13:44;;;;;;;0.20;0.20;;;16.30;99.90;;;;;;5021126;28;20048;-83
2023/07/14 02:16:14;;;;;;;0.20;0.20;;;16.30;99.90;;;;;;5028246;28;20046;-83
2023/07/14 02:18:41;;;;;;;0.20;0.20;;;16.30;99.90;;;;;;5050668;28;20492;-83
2023/07/14 02:21:09;;;;;;;0.25;0.25;;;16.30;99.90;;;;;;5051631;28;20080;-83
2023/07/14 02:23:39;;;;;;;0.20;0.20;;;16.30;99.90;;;;;;5052166;28;20045;-83
2023/07/14 02:26:08;;;;;;;0.20;0.20;;;16.20;99.90;;;;;;5035360;28;20777;-83
2023/07/14 02:28:33;;;;;;;0.20;0.20;;;16.20;99.90;;;;;;5044093;28;20053;-83
2023/07/14 02:31:10;;;;;;;0.20;0.20;;;16.20;99.90;;;;;;5049193;28;20071;-83
2023/07/14 02:33:41;;;;;;;0.20;0.20;;;16.20;99.90;;;;;;5033079;28;20045;-83
2023/07/14 02:36:44;;;;;;;0.20;0.20;;;16.20;99.90;;;;;;5051687;28;20381;-83
2023/07/14 02:39:10;;;;;;;0.13;0.13;;;16.20;99.90;;;;;;5034376;28;20124;-83
2023/07/14 02:41:40;;;;;;;0.20;0.20;;;16.10;99.90;;;;;;5032266;28;20178;-83
2023/07/14 02:44:11;;;;;;;0.20;0.20;;;16.10;99.90;;;;;;5032074;28;20056;-83
2023/07/14 02:47:12;;;;;;;0.20;0.20;;;16.10;99.90;;;;;;5049421;28;20493;-83
2023/07/14 02:49:39;;;;;;;0.10;0.10;;;16.10;99.90;;;;;;5042365;28;20451;-83
2023/07/14 02:52:05;;;;;;;0.20;0.20;;;16.00;99.90;;;;;;5050136;28;20156;-83
2023/07/14 02:54:30;;;;;;;0.20;0.20;;;16.10;99.90;;;;;;5032145;28;20116;-82
2023/07/14 02:56:56;;;;;;;0.20;0.20;;;16.10;99.90;;;;;;5032217;28;20098;-83
2023/07/14 02:59:22;;;;;;;0.20;0.20;;;16.10;99.90;;;;;;5026765;28;20438;-83
2023/07/14 03:01:48;;;;;;;0.20;0.20;;;16.00;99.90;;;;;;5032915;28;20048;-84
2023/07/14 03:04:14;;;;;;;0.10;0.10;;;16.10;99.90;;;;;;5033810;28;20063;-83
2023/07/14 03:06:40;;;;;;;0.20;0.20;;;16.00;99.90;;;;;;5032178;28;20511;-83
2023/07/14 03:09:06;;;;;;;0.20;0.20;;;16.00;99.90;;;;;;5051679;28;20041;-83
2023/07/14 03:11:31;;;;;;;0.10;0.10;;;16.00;99.90;;;;;;5032319;28;20758;-83
2023/07/14 03:13:57;;;;;;;0.20;0.20;;;16.00;99.90;;;;;;5032005;28;20064;-83
2023/07/14 03:16:23;;;;;;;0.20;0.20;;;16.00;99.90;;;;;;5033426;28;20045;-83
2023/07/14 03:18:48;;;;;;;0.15;0.15;;;15.90;99.90;;;;;;5030782;28;20105;-84
2023/07/14 03:21:14;;;;;;;0.20;0.20;;;16.00;99.90;;;;;;5052200;28;20053;-83
2023/07/14 03:23:40;;;;;;;0.20;0.20;;;15.90;99.90;;;;;;5033020;28;20041;-83
2023/07/14 03:26:08;;;;;;;0.20;0.20;;;15.90;99.90;;;;;;5050995;28;20569;-83
2023/07/14 03:28:34;;;;;;;0.20;0.20;;;15.90;99.90;;;;;;5024817;28;20500;-83
2023/07/14 03:31:04;;;;;;;0.20;0.20;;;15.80;99.90;;;;;;5031551;28;20140;-82
2023/07/14 03:33:32;;;;;;;0.20;0.20;;;15.80;99.90;;;;;;5051826;28;20163;-83
2023/07/14 03:36:10;;;;;;;0.20;0.20;;;15.80;99.90;;;;;;5033334;28;20071;-83
2023/07/14 03:38:39;;;;;;;0.20;0.20;;;15.80;99.90;;;;;;5049609;28;20477;-83
2023/07/14 03:41:05;;;;;;;0.20;0.20;;;15.80;99.90;;;;;;5029440;28;20045;-83
2023/07/14 03:43:31;;;;;;;0.20;0.20;;;15.80;99.90;;;;;;5030972;28;20388;-83
2023/07/14 03:45:58;;;;;;;0.20;0.20;;;15.80;99.90;;;;;;5049923;28;20041;-83
2023/07/14 03:48:23;;;;;;;0.20;0.20;;;15.80;99.90;;;;;;5051464;28;20033;-82
2023/07/14 03:50:49;;;;;;;0.17;0.17;;;15.80;99.90;;;;;;5050056;28;20417;-83
2023/07/14 03:53:15;;;;;;;0.20;0.20;;;15.80;99.90;;;;;;5030934;28;20037;-83
2023/07/14 03:55:41;;;;;;;0.20;0.20;;;15.80;99.90;;;;;;5029197;28;20098;-83
2023/07/14 03:58:06;;;;;;;0.20;0.20;;;15.80;99.90;;;;;;5026963;28;20055;-84
2023/07/14 04:00:33;;;;;;;0.20;0.20;;;15.80;99.90;;;;;;5027570;28;20045;-84
2023/07/14 04:02:59;;;;;;;0.20;0.20;;;15.80;99.90;;;;;;5029374;28;20551;-82
2023/07/14 04:05:25;;;;;;;0.20;0.20;;;15.80;99.90;;;;;;5032579;28;20040;-84
2023/07/14 04:07:51;;;;;;;0.20;0.20;;;15.80;99.90;;;;;;5030935;28;20059;-83
2023/07/14 04:10:18;;;;;;;0.20;0.20;;;15.80;99.90;;;;;;5032844;28;20048;-83
2023/07/14 04:12:47;;;;;;;0.20;0.20;;;15.80;99.90;;;;;;5031135;28;20037;-84
2023/07/14 04:15:13;;;;;;;0.20;0.20;;;15.80;99.90;;;;;;5030250;28;20041;-83
2023/07/14 04:17:38;;;;;;;0.20;0.20;;;15.80;99.90;;;;;;5030682;28;20558;-83
2023/07/14 04:20:05;;;;;;;0.20;0.20;;;15.80;99.90;;;;;;5031117;28;20096;-82
2023/07/14 04:22:31;;;;;;;0.20;0.20;;;15.90;99.90;;;;;;5032974;28;20049;-83
2023/07/14 04:24:59;;;;;;;0.20;0.20;;;15.90;99.90;;;;;;5032098;28;20040;-83
2023/07/14 04:27:26;;;;;;;0.20;0.20;;;15.90;99.90;;;;;;5020956;28;20044;-83
2023/07/14 04:29:52;;;;;;;0.20;0.20;;;15.90;99.90;;;;;;5047720;28;20055;-82
2023/07/14 04:32:18;;;;;;;0.10;0.10;;;15.90;99.90;;;;;;5049986;28;20044;-83
2023/07/14 04:34:45;;;;;;;0.20;0.20;;;16.00;99.90;;;;;;5048658;28;20072;-83
2023/07/14 04:37:11;;;;;;;0.20;0.20;;;16.00;99.90;;;;;;5032719;28;20053;-83
2023/07/14 04:39:36;;;;;;;0.17;0.17;;;16.00;99.90;;;;;;5030974;28;20041;-82
2023/07/14 04:42:03;;;;;;;0.10;0.10;;;16.00;99.90;;;;;;5042486;28;20064;-82
2023/07/14 04:44:29;;;;;;;0.20;0.20;;;16.00;99.90;;;;;;5046453;28;20386;-82
2023/07/14 04:46:57;;;;;;;0.20;0.20;;;16.00;99.90;;;;;;5050802;28;20055;-82
2023/07/14 04:49:23;;;;;;;0.20;0.20;;;16.00;99.90;;;;;;5047198;28;20109;-82
2023/07/14 04:51:49;;;;;;;0.20;0.20;;;16.10;99.90;;;;;;5047925;28;20060;-83
2023/07/14 04:54:15;;;;;;;0.20;0.20;;;16.10;99.90;;;;;;5030470;28;20045;-82
2023/07/14 04:56:42;;;;;;;0.10;0.10;;;16.10;99.90;;;;;;5029823;28;20068;-83
2023/07/14 04:59:08;;;;;;;0.20;0.20;;;16.10;99.90;;;;;;5030389;28;20060;-82
2023/07/14 05:01:34;;;;;;;0.20;0.20;;;16.20;99.90;;;;;;5028898;28;20041;-82
2023/07/14 05:03:59;;;;;;;0.10;0.10;;;16.20;99.90;;;;;;5027325;28;20053;-83
2023/07/14 05:06:25;;;;;;;0.20;0.20;;;16.20;99.90;;;;;;5044054;28;20120;-82
2023/07/14 05:08:51;;;;;;;0.20;0.20;;;16.30;99.90;;;;;;5027329;28;20041;-83
2023/07/14 05:11:17;;;;;;;0.20;0.20;;;16.30;99.90;;;;;;5047314;28;20048;-83
2023/07/14 05:13:42;;;;;;;0.15;0.15;;;16.30;99.90;;;;;;5030521;28;20080;-82
2023/07/14 05:16:08;;;;;;;0.20;0.20;;;16.30;99.90;;;;;;5049271;28;20041;-82
2023/07/14 05:18:34;;;;;;;0.20;0.20;;;16.30;99.90;;;;;;5028926;28;20060;-82
2023/07/14 05:21:03;;;;;;;0.20;0.20;;;16.40;99.90;;;;;;5032208;28;20132;-82
2023/07/14 05:23:28;;;;;;;0.20;0.20;;;16.40;99.90;;;;;;5031632;28;20047;-83
2023/07/14 05:25:55;;;;;;;0.10;0.10;;;16.40;99.90;;;;;;5029118;28;20128;-83
2023/07/14 05:28:22;;;;;;;0.20;0.20;;;16.40;99.90;;;;;;5029372;28;20448;-82
2023/07/14 05:30:47;;;;;;;0.20;0.20;;;16.50;99.90;;;;;;5028516;28;20041;-82
2023/07/14 05:33:16;;;;;;;0.20;0.20;;;16.50;99.90;;;;;;5047039;28;20123;-82
2023/07/14 05:35:42;;;;;;;0.20;0.20;;;16.50;99.90;;;;;;5047661;28;20045;-84
2023/07/14 05:38:08;;;;;;;0.20;0.20;;;16.50;99.90;;;;;;5045719;28;20120;-82
2023/07/14 05:40:33;;;;;;;0.20;0.20;;;16.50;99.90;;;;;;5045524;28;20132;-84
2023/07/14 05:42:59;;;;;;;0.20;0.20;;;16.60;99.90;;;;;;5047454;28;20485;-83
2023/07/14 05:45:25;;;;;;;0.20;0.20;;;16.60;99.90;;;;;;5048610;28;20103;-83
2023/07/14 05:47:51;;;;;;;0.20;0.20;;;16.60;99.90;;;;;;5049581;28;20044;-83
2023/07/14 05:50:17;;;;;;;0.10;0.10;;;16.60;99.90;;;;;;5048571;28;20077;-83
2023/07/14 05:52:44;;;;;;;0.20;0.20;;;16.70;99.90;;;;;;5047318;28;20126;-83
2023/07/14 05:55:11;;;;;;;0.20;0.20;;;16.70;99.90;;;;;;5042568;28;20072;-83
2023/07/14 05:57:37;;;;;;;0.20;0.20;;;16.70;99.90;;;;;;5048750;28;20087;-83
2023/07/14 06:00:13;;;;;;;0.10;0.10;;;16.80;99.90;;;;;;5064389;28;20064;-84
2023/07/14 06:02:50;;;;;;;0.17;0.17;;;16.80;99.90;;;;;;5037733;28;20041;-83
2023/07/14 06:05:17;;;;;;;0.20;0.20;;;16.90;99.90;;;;;;5050065;28;20132;-78
2023/07/14 06:07:43;;;;;;;0.20;0.20;;;16.90;99.90;;;;;;5049733;28;20044;-77
2023/07/14 06:10:10;;;;;;;0.10;0.10;;;16.90;99.90;;;;;;5048437;28;20037;-78
2023/07/14 06:12:36;;;;;;;0.20;0.20;;;17.00;99.90;;;;;;5050142;28;20056;-77
2023/07/14 06:15:03;;;;;;;0.20;0.20;;;17.10;99.90;;;;;;5044813;28;20041;-77
2023/07/14 06:17:29;;;;;;;0.20;0.20;;;17.10;99.90;;;;;;5048909;28;20398;-77
2023/07/14 06:19:55;;;;;;;0.20;0.20;;;17.10;99.90;;;;;;5051536;28;20076;-77
2023/07/14 06:22:22;;;;;;;0.20;0.20;;;17.20;99.90;;;;;;5051538;28;20487;-76
2023/07/14 06:24:48;;;;;;;0.20;0.20;;;17.30;99.90;;;;;;5049046;28;20034;-76
2023/07/14 06:27:15;;;;;;;0.20;0.20;;;17.30;99.90;;;;;;5045661;28;20477;-77
2023/07/14 06:29:41;;;;;;;0.20;0.20;;;17.40;99.90;;;;;;5050448;28;20045;-76
2023/07/14 06:32:07;;;;;;;0.10;0.10;;;17.40;99.90;;;;;;5050949;28;20063;-77
2023/07/14 06:34:33;;;;;;;0.10;0.10;;;17.50;99.90;;;;;;5051790;28;20051;-77
2023/07/14 06:36:58;;;;;;;0.20;0.20;;;17.50;99.90;;;;;;5050336;28;20041;-77
2023/07/14 06:39:24;;;;;;;0.10;0.10;;;17.60;99.90;;;;;;5049782;28;20041;-76
2023/07/14 06:41:50;;;;;;;0.20;0.20;;;17.60;99.90;;;;;;5028673;28;20065;-75
2023/07/14 06:44:16;;;;;;;0.10;0.10;;;17.70;99.90;;;;;;5030280;28;20041;-77
2023/07/14 06:46:43;;;;;;;0.20;0.20;;;17.70;99.90;;;;;;5047980;28;20049;-77
2023/07/14 06:49:09;;;;;;;0.10;0.10;;;17.80;99.90;;;;;;5033186;28;20045;-76
2023/07/14 06:51:34;;;;;;;0.20;0.20;;;17.90;99.90;;;;;;5034671;28;20053;-76
2023/07/14 06:54:00;;;;;;;0.20;0.20;;;17.90;99.90;;;;;;5051465;28;20044;-77
2023/07/14 06:56:26;;;;;;;0.20;0.20;;;18.00;99.90;;;;;;5042773;28;20045;-75
2023/07/14 06:58:52;;;;;;;0.10;0.10;;;18.00;99.90;;;;;;5034073;28;20041;-76
2023/07/14 07:01:20;;;;;;;0.20;0.20;;;18.10;99.90;;;;;;5053244;28;20533;-76
2023/07/14 07:03:45;;;;;;;0.15;0.15;;;18.20;99.90;;;;;;5050667;28;20110;-76
2023/07/14 07:06:14;;;;;;;0.17;0.17;;;18.20;99.90;;;;;;5033347;28;20108;-76
2023/07/14 07:08:39;;;;;;;0.20;0.20;;;18.20;99.90;;;;;;5049865;28;20404;-76
2023/07/14 07:11:05;;;;;;;0.20;0.20;;;18.30;99.90;;;;;;5044144;28;20037;-75
2023/07/14 07:13:31;;;;;;;0.20;0.20;;;18.30;99.90;;;;;;5028648;28;20083;-77
2023/07/14 07:15:56;;;;;;;0.10;0.10;;;18.40;99.90;;;;;;5028921;28;20037;-75
2023/07/14 07:18:25;;;;;;;0.20;0.20;;;18.40;99.90;;;;;;5046866;28;20126;-74
2023/07/14 07:20:52;;;;;;;0.20;0.20;;;18.50;99.90;;;;;;5045231;28;20595;-76
2023/07/14 07:23:19;;;;;;;0.20;0.20;;;18.50;99.90;;;;;;5025729;28;20119;-77
2023/07/14 07:25:53;;;;;;;0.15;0.15;;;18.60;99.90;;;;;;5025323;28;20041;-76
2023/07/14 07:28:20;;;;;;;0.20;0.20;;;18.60;99.90;;;;;;5041079;28;20087;-77
2023/07/14 07:30:46;;;;;;;0.17;0.17;;;18.70;99.90;;;;;;5045187;28;20048;-77
2023/07/14 07:33:13;;;;;;;0.20;0.20;;;18.70;99.90;;;;;;5047066;28;20106;-77
2023/07/14 07:35:41;;;;;;;0.20;0.20;;;18.80;99.90;;;;;;5033944;28;20094;-78
2023/07/14 07:38:10;;;;;;;0.20;0.20;;;18.80;99.90;;;;;;5032573;28;20135;-76
2023/07/14 07:40:36;;;;;;;0.10;0.10;;;18.90;99.90;;;;;;5049790;28;20456;-76
2023/07/14 07:43:02;;;;;;;0.20;0.20;;;18.90;99.90;;;;;;5032508;28;20171;-77
2023/07/14 07:45:28;;;;;;;0.10;0.10;;;18.90;99.90;;;;;;5032220;28;20123;-77
2023/07/14 07:47:53;;;;;;;0.20;0.20;;;18.90;99.90;;;;;;5050465;28;20433;-76
2023/07/14 07:50:19;;;;;;;0.20;0.20;;;19.00;99.90;;;;;;5030661;28;20405;-77
2023/07/14 07:52:46;;;;;;;0.10;0.10;;;19.00;99.90;;;;;;5044862;28;20404;-76
2023/07/14 07:55:12;;;;;;;0.20;0.20;;;19.00;99.90;;;;;;5025870;28;20053;-76
2023/07/14 07:57:37;;;;;;;0.10;0.10;;;19.10;99.90;;;;;;5031215;28;20441;-77
2023/07/14 08:00:06;;;;;;;0.10;0.10;;;19.10;99.90;;;;;;5028213;28;20133;-77
2023/07/14 08:02:31;;;;;;;0.20;0.20;;;19.20;99.90;;;;;;5041978;28;20049;-77
2023/07/14 08:04:57;;;;;;;0.20;0.20;;;19.20;99.90;;;;;;5031191;28;20044;-77
2023/07/14 08:07:23;;;;;;;0.20;0.20;;;19.20;99.90;;;;;;5028088;28;20364;-77
2023/07/14 08:09:50;;;;;;;0.20;0.20;;;19.30;99.90;;;;;;5047185;28;20381;-77
2023/07/14 08:12:16;;;;;;;0.20;0.20;;;19.40;99.90;;;;;;5032792;28;20041;-78
2023/07/14 08:14:57;;;;;;;0.20;0.20;;;19.50;99.90;;;;;;5046679;28;20068;-77
2023/07/14 08:17:25;;;;;;;0.20;0.20;;;19.70;99.90;;;;;;5043621;28;20484;-78
2023/07/14 08:19:51;;;;;;;0.20;0.20;;;19.80;99.90;;;;;;5048705;28;20052;-77
2023/07/14 08:22:17;;;;;;;0.20;0.20;;;19.80;99.90;;;;;;5040969;28;20037;-77
2023/07/14 08:24:42;;;;;;;0.10;0.10;;;19.90;99.90;;;;;;5029439;28;20040;-78
2023/07/14 08:27:08;;;;;;;0.20;0.20;;;19.80;99.90;;;;;;5031810;28;20103;-78
2023/07/14 08:29:34;;;;;;;0.20;0.20;;;19.80;99.90;;;;;;5027782;28;20038;-77
2023/07/14 08:32:00;;;;;;;0.30;0.30;;;19.80;99.90;;;;;;5044054;28;20053;-78
2023/07/14 08:34:27;;;;;;;0.20;0.20;;;19.80;99.90;;;;;;5029376;28;20040;-78
2023/07/14 08:36:53;;;;;;;0.20;0.20;;;19.80;99.90;;;;;;5023215;28;20098;-78
2023/07/14 08:39:19;;;;;;;0.20;0.20;;;19.80;99.90;;;;;;5048476;28;20434;-78
2023/07/14 08:41:46;;;;;;;0.15;0.15;;;19.80;99.90;;;;;;5048080;28;20037;-78
2023/07/14 08:44:24;;;;;;;0.17;0.17;;;19.80;99.90;;;;;;5030388;28;20064;-77
2023/07/14 08:47:29;;;;;;;0.20;0.20;;;19.80;99.90;;;;;;5023518;28;20076;-79
2023/07/14 08:50:20;;;;;;;0.20;0.20;;;19.90;99.90;;;;;;5045523;28;20053;-77
2023/07/14 08:52:49;;;;;;;0.20;0.20;;;20.00;99.90;;;;;;5031419;28;20430;-78
2023/07/14 08:55:20;;;;;;;0.20;0.20;;;20.00;99.90;;;;;;5022868;28;20392;-78
2023/07/14 08:57:51;;;;;;;0.20;0.20;;;20.10;99.90;;;;;;5029715;28;20053;-78
2023/07/14 09:00:23;;;;;;;;;;;20.10;99.90;;;;;;5031705;28;20317;-77
2023/07/14 09:03:13;;;;;;;0.20;0.20;;;20.20;99.90;;;;;;5030481;28;19927;-76
2023/07/14 09:05:46;;;;;;;0.20;0.20;;;20.20;99.90;;;;;;5048529;28;20057;-79
2023/07/14 09:08:12;;;;;;;0.20;0.20;;;20.30;99.90;;;;;;5048459;28;20382;-77
2023/07/14 09:10:50;;;;;;;0.20;0.20;;;20.30;99.90;;;;;;5046936;28;20037;-78
2023/07/14 09:13:26;;;;;;;0.20;0.20;;;20.30;99.90;;;;;;5023368;28;20534;-78
2023/07/14 09:15:52;;;;;;;0.20;0.20;;;20.30;99.90;;;;;;5027978;28;20525;-77
2023/07/14 09:18:47;;;;;;;0.20;0.20;;;20.30;99.90;;;;;;5048698;28;20044;-78
2023/07/14 09:21:29;;;;;;;0.20;0.20;;;20.40;99.90;;;;;;5025466;28;20049;-78
2023/07/14 09:24:21;;;;;;;0.20;0.20;;;20.50;99.90;;;;;;5029522;28;20052;-78
2023/07/14 09:26:53;;;;;;;0.20;0.20;;;20.60;99.90;;;;;;5000587;28;20060;-78
2023/07/14 09:29:31;;;;;;;0.20;0.20;;;20.60;99.90;;;;;;5030108;28;20045;-77
2023/07/14 09:32:03;;;;;;;0.20;0.20;;;20.60;99.90;;;;;;5033562;28;20062;-77
2023/07/14 09:34:43;;;;;;;0.30;0.30;;;20.60;99.90;;;;;;5044308;28;20099;-78
2023/07/14 09:37:30;;;;;;;0.20;0.20;;;20.60;99.90;;;;;;5044142;28;20049;-78
2023/07/14 09:40:17;;;;;;;0.20;0.20;;;20.70;99.90;;;;;;5039212;28;20072;-78
2023/07/14 09:42:50;;;;;;;0.20;0.20;;;20.60;99.90;;;;;;5045288;28;20044;-77
2023/07/14 09:45:23;;;;;;;0.20;0.20;;;20.60;99.90;;;;;;5047481;28;20430;-78
2023/07/14 09:48:17;;;;;;;0.10;0.10;;;20.50;99.70;;;;;;5047434;28;20037;-78
2023/07/14 09:51:09;;;;;;;0.20;0.20;;;20.60;99.90;;;;;;5038584;28;20045;-77
2023/07/14 09:53:37;;;;;;;0.20;0.20;;;20.70;99.80;;;;;;5047318;28;20068;-78
2023/07/14 09:56:11;;;;;;;0.20;0.20;;;20.80;99.50;;;;;;5045773;28;20380;-77
2023/07/14 09:58:37;;;;;;;0.32;0.22;;;20.90;99.40;;;;;;5056244;28;20037;-78
2023/07/14 10:01:07;;;;;;;0.10;0.10;;;21.00;99.30;;;;;;5044901;28;20103;-78
2023/07/14 10:03:42;;;;;;;0.17;0.17;;;21.10;99.30;;;;;;5047853;28;20465;-78
2023/07/14 10:06:20;;;;;;;0.30;0.20;;;21.30;98.80;;;;;;5045686;28;20059;-78
2023/07/14 10:09:11;;;;;;;0.20;0.20;;;21.40;97.50;;;;;;5047086;28;20037;-78
2023/07/14 10:11:43;;;;;;;0.20;0.20;;;21.40;97.90;;;;;;5038201;28;20045;-78
2023/07/14 10:14:25;;;;;;;0.20;0.20;;;21.50;98.10;;;;;;5046351;28;20303;-78
2023/07/14 10:16:53;;;;;;;0.20;0.20;;;21.60;97.40;;;;;;5046549;28;20052;-79
2023/07/14 10:19:21;;;;;;;0.20;0.20;;;21.60;97.90;;;;;;5045463;28;20091;-78
2023/07/14 10:21:54;;;;;;;0.20;0.20;;;21.70;97.30;;;;;;5041662;28;20127;-79
2023/07/14 10:24:20;;;;;;;0.20;0.20;;;21.70;97.10;;;;;;5047774;28;20388;-78
2023/07/14 10:27:05;;;;;;;0.20;0.20;;;21.70;97.50;;;;;;5046725;28;20119;-78
2023/07/14 10:29:46;;;;;;;0.20;0.20;;;21.70;97.80;;;;;;5043303;28;20034;-78
2023/07/14 10:32:32;;;;;;;;;;;21.70;97.80;;;;;;5048410;28;20107;-79
2023/07/14 10:35:11;;;;;;;0.20;0.20;;;21.70;97.80;;;;;;5046803;28;19942;-79
2023/07/14 10:37:43;;;;;;;0.20;0.20;;;21.60;98.10;;;;;;5042585;28;20045;-78
2023/07/14 10:40:23;;;;;;;0.20;0.20;;;21.60;97.80;;;;;;5044674;28;20542;-78
2023/07/14 10:43:02;;;;;;;0.20;0.20;;;21.70;97.90;;;;;;5031444;28;20049;-78
2023/07/14 10:45:30;;;;;;;0.20;0.20;;;21.70;97.70;;;;;;5034267;28;20132;-78
2023/07/14 10:48:14;;;;;;;0.20;0.20;;;21.70;97.90;;;;;;5031757;28;20048;-79
2023/07/14 10:51:15;;;;;;;0.20;0.20;;;21.70;98.00;;;;;;5033071;28;20052;-77
2023/07/14 10:53:55;;;;;;;0.20;0.20;;;21.80;97.90;;;;;;5001038;28;20083;-77
2023/07/14 10:56:33;;;;;;;0.20;0.20;;;22.00;97.60;;;;;;5026993;28;20151;-78
2023/07/14 10:59:09;;;;;;;0.20;0.20;;;22.10;97.60;;;;;;5031376;28;20037;-76
2023/07/14 11:01:39;;;;;;;0.20;0.20;;;22.30;96.60;;;;;;5032940;28;20091;-76
2023/07/14 11:04:33;;;;;;;0.20;0.20;;;22.40;96.90;;;;;;5046430;28;20107;-80
2023/07/14 11:07:00;;;;;;;0.20;0.20;;;22.40;96.60;;;;;;5042729;28;20407;-79
2023/07/14 11:09:28;;;;;;;0.20;0.20;;;22.50;95.90;;;;;;5050243;28;20044;-78
2023/07/14 11:12:05;;;;;;;0.20;0.20;;;22.60;96.50;;;;;;5031004;28;20443;-79
2023/07/14 11:14:48;;;;;;;0.20;0.20;;;22.70;96.60;;;;;;5030162;28;20049;-79
2023/07/14 11:17:17;;;;;;;0.20;0.20;;;22.80;96.00;;;;;;5049333;28;20575;-80
2023/07/14 11:19:57;;;;;;;0.20;0.20;;;22.90;96.20;;;;;;5032834;28;20045;-78
2023/07/14 11:22:52;;;;;;;0.20;0.20;;;23.00;95.70;;;;;;5031988;28;20045;-78
2023/07/14 11:25:21;;;;;;;0.20;0.20;;;23.10;95.80;;;;;;5047835;28;20084;-78
2023/07/14 11:28:36;;;;;;;0.20;0.20;;;23.20;95.90;;;;;;5049898;28;20075;-78
2023/07/14 11:31:18;;;;;;;0.20;0.20;;;23.30;95.60;;;;;;5014385;28;20067;-77
2023/07/14 11:33:46;;;;;;;0.20;0.20;;;23.20;94.80;;;;;;5049937;28;20049;-77
2023/07/14 11:36:17;;;;;;;0.20;0.20;;;23.20;94.70;;;;;;5032104;28;20135;-78
2023/07/14 11:38:52;;;;;;;;;;;23.10;94.90;;;;;;5026830;28;20400;-78
2023/07/14 11:41:19;;;;;;;0.20;0.20;;;23.10;95.30;;;;;;5033802;28;20434;-76
2023/07/14 11:43:46;;;;;;;0.20;0.20;;;23.20;95.00;;;;;;5046157;28;20084;-77
2023/07/14 11:46:17;;;;;;;0.20;0.20;;;23.20;95.40;;;;;;5048222;28;20045;-77
2023/07/14 11:49:02;;;;;;;0.20;0.20;;;23.30;95.30;;;;;;5030576;28;20044;-77
2023/07/14 11:51:56;;;;;;;0.20;0.20;;;23.50;95.10;;;;;;5021942;28;20051;-78
2023/07/14 11:54:48;;;;;;;0.63;0.30;;;23.60;95.10;;;;;;5030502;28;20128;-76
2023/07/14 11:57:18;;;;;;;0.20;0.20;;;23.70;93.10;;;;;;5016963;28;20061;-77
2023/07/14 12:00:17;;;;;;;0.30;0.30;;;23.70;93.10;;;;;;5047144;28;20063;-75
2023/07/14 12:02:49;;;;;;;0.20;0.20;;;23.70;93.60;;;;;;5026680;28;20063;-76
2023/07/14 12:05:14;;;;;;;0.20;0.20;;;23.90;94.10;;;;;;5042257;28;20088;-76
2023/07/14 12:07:59;;;;;;;0.20;0.20;;;24.00;94.30;;;;;;5026672;28;20072;-75
2023/07/14 12:10:41;;;;;;;0.30;0.30;;;24.20;94.00;;;;;;5025393;28;20120;-75
2023/07/14 12:13:26;;;;;;;0.20;0.20;;;24.30;94.20;;;;;;5040816;28;20398;-75
2023/07/14 12:16:18;;;;;;;0.20;0.20;;;24.50;93.80;;;;;;5045291;28;20124;-76
2023/07/14 12:19:22;;;;;;;0.20;0.20;;;24.50;93.10;;;;;;5025744;28;20037;-75
2023/07/14 12:21:56;;;;;;;0.20;0.20;;;24.40;92.40;;;;;;5026624;28;20041;-76
2023/07/14 12:24:29;;;;;;;0.20;0.20;;;24.30;92.60;;;;;;5029003;28;20041;-75
2023/07/14 12:27:21;;;;;;;0.20;0.20;;;24.30;92.20;;;;;;5028676;28;20049;-76
2023/07/14 12:29:50;;;;;;;0.20;0.20;;;24.20;91.70;;;;;;5028372;28;20599;-75
2023/07/14 12:32:18;;;;;;;0.20;0.20;;;24.20;91.80;;;;;;5028624;28;20527;-75
2023/07/14 12:34:45;;;;;;;0.20;0.20;;;24.20;91.00;;;;;;5039848;28;20052;-76
2023/07/14 12:37:20;;;;;;;0.20;0.20;;;24.10;91.60;;;;;;5042128;28;20048;-76
2023/07/14 12:39:51;;;;;;;0.20;0.20;;;24.00;91.60;;;;;;5042776;28;20455;-77
2023/07/14 12:42:17;;;;;;;0.20;0.20;;;23.90;91.60;;;;;;5035549;28;20103;-76
2023/07/14 12:44:44;;;;;;;0.20;0.20;;;23.80;91.30;;;;;;5042290;28;20045;-76
2023/07/14 12:47:15;;;;;;;0.20;0.20;;;23.70;91.40;;;;;;5041369;28;20076;-76
2023/07/14 12:49:46;;;;;;;0.22;0.22;;;23.60;91.70;;;;;;5044235;28;20037;-77
2023/07/14 12:52:20;;;;;;;0.20;0.20;;;23.50;91.80;;;;;;5031105;28;20055;-77
2023/07/14 12:54:47;;;;;;;0.20;0.20;;;23.40;92.00;;;;;;5031360;28;20559;-77
2023/07/14 12:57:17;;;;;;;0.20;0.20;;;23.40;92.40;;;;;;5041780;28;20439;-76
2023/07/14 12:59:50;;;;;;;0.20;0.20;;;23.30;92.30;;;;;;5038967;28;20136;-77
2023/07/14 13:02:15;;;;;;;0.20;0.20;;;23.30;92.40;;;;;;5045713;28;20064;-77
2023/07/14 13:04:42;;;;;;;0.20;0.20;;;23.30;92.60;;;;;;5045989;28;20492;-77
2023/07/14 13:07:19;;;;;;;0.20;0.20;;;23.20;92.10;;;;;;5047879;28;20051;-77